Time;durP1;ratioP1;P1;durP2;ratioP2;P2;SDS_P1;SDS_P2;PMS_P1;PMS_P2;Temp;Humidity;BMP_temperature;BMP_pressure;BME280_temperature;BME280_humidity;BME280_pressure;Samples;Min_cycle;Max_cycle;Signal;HPM_P1;HPM_P2
2023/10/14 00:00:39;;;;;;;;;;;;;;;;;;5063415;28;19948;-75
2023/10/14 00:03:22;;;;;;;;;;;;;;;;;;5064554;28;20385;-75
2023/10/14 00:05:48;;;;;;;;;;;;;;;;;;5061262;28;19913;-75
2023/10/14 00:08:14;;;;;;;;;;;;;;;;;;5066949;28;20270;-75
2023/10/14 00:10:40;;;;;;;;;;;;;;;;;;5069693;28;19909;-74
2023/10/14 00:13:10;;;;;;;;;;;;;;;;;;5070711;28;19936;-74
2023/10/14 00:15:39;;;;;;;;;;;;;;;;;;5062366;28;19908;-73
2023/10/14 00:18:05;;;;;;;;;;;;;;;;;;5069181;28;19975;-74
2023/10/14 00:20:35;;;;;;;;;;;;;;;;;;5068450;28;19964;-74
2023/10/14 00:23:01;;;;;;;;;;;;;;;;;;5069400;28;19954;-74
2023/10/14 00:25:33;;;;;;;;;;;;;;;;;;5069116;28;19912;-74
2023/10/14 00:28:02;;;;;;;;;;;;;;;;;;5070868;28;19958;-74
2023/10/14 00:30:31;;;;;;;;;;;;;;;;;;5066731;28;20366;-74
2023/10/14 00:32:57;;;;;;;;;;;;;;;;;;5072220;28;19917;-73
2023/10/14 00:35:26;;;;;;;;;;;;;;;;;;5072987;28;19994;-74
2023/10/14 00:37:53;;;;;;;;;;;;;;;;;;5074564;28;20007;-74
2023/10/14 00:40:22;;;;;;;;;;;;;;;;;;5066524;28;19952;-74
2023/10/14 00:42:50;;;;;;;;;;;;;;;;;;5074091;28;19951;-74
2023/10/14 00:45:20;;;;;;;;;;;;;;;;;;5067955;28;19920;-75
2023/10/14 00:47:46;;;;;;;;;;;;;;;;;;5073416;28;19909;-74
2023/10/14 00:52:54;;;;;;;;;;;;;;;;;;5074371;28;19923;-74
2023/10/14 00:55:24;;;;;;;;;;;;;;;;;;5070763;28;19915;-74
2023/10/14 00:57:54;;;;;;;;;;;;;;;;;;5057304;28;19933;-74
2023/10/14 01:00:22;;;;;;;;;;;;;;;;;;5055417;28;19923;-74
2023/10/14 01:02:48;;;;;;;;;;;;;;;;;;5068041;28;19908;-74
2023/10/14 01:05:19;;;;;;;;;;;;;;;;;;5069893;28;20380;-74
2023/10/14 01:07:47;;;;;;;;;;;;;;;;;;5060528;28;19955;-75
2023/10/14 01:10:24;;;;;;;;;;;;;;;;;;5054337;28;19913;-75
2023/10/14 01:12:54;;;;;;;;;;;;;;;;;;5087948;28;20281;-75
2023/10/14 01:15:28;;;;;;;;;;;;;;;;;;5072573;28;19909;-75
2023/10/14 01:17:54;;;;;;;;;;;;;;;;;;5068713;28;19921;-75
2023/10/14 01:22:51;;;;;;;;;;;;;;;;;;5073014;28;19909;-74
2023/10/14 01:25:18;;;;;;;;;;;;;;;;;;5074501;28;19924;-75
2023/10/14 01:27:44;;;;;;;;;;;;;;;;;;5072116;28;19908;-74
2023/10/14 01:30:11;;;;;;;;;;;;;;;;;;5061022;28;20010;-74
2023/10/14 01:32:48;;;;;;;;;;;;;;;;;;5067769;28;20011;-74
2023/10/14 01:35:51;;;;;;;;;;;;;;;;;;5080625;28;19954;-74
2023/10/14 01:38:07;;;;;;;;;;;;;;;;;;5067642;28;19916;-74
2023/10/14 01:40:37;;;;;;;;;;;;;;;;;;5068713;28;19916;-75
2023/10/14 01:43:06;;;;;;;;;;;;;;;;;;5068185;28;20340;-75
2023/10/14 01:45:39;;;;;;;;;;;;;;;;;;5068082;28;19943;-75
2023/10/14 01:50:45;;;;;;;;;;;;;;;;;;5071865;28;19912;-75
2023/10/14 01:53:11;;;;;;;;;;;;;;;;;;5068610;28;20018;-75
2023/10/14 01:55:37;;;;;;;;;;;;;;;;;;5070947;28;20014;-75
2023/10/14 01:58:03;;;;;;;;;;;;;;;;;;5072960;28;20445;-75
2023/10/14 02:00:36;;;;;;;;;;;;;;;;;;5071593;28;19913;-75
2023/10/14 02:03:06;;;;;;;;;;;;;;;;;;5069193;28;20014;-74
2023/10/14 02:05:34;;;;;;;;;;;;;;;;;;5068657;28;20382;-75
2023/10/14 02:08:00;;;;;;;;;;;;;;;;;;5069575;28;19912;-75
2023/10/14 02:10:27;;;;;;;;;;;;;;;;;;5071676;28;19916;-75
2023/10/14 02:12:56;;;;;;;;;;;;;;;;;;5085535;28;20362;-75
2023/10/14 02:15:24;;;;;;;;;;;;;;;;;;5068865;28;19912;-75
2023/10/14 02:17:50;;;;;;;;;;;;;;;;;;5064983;28;20011;-74
2023/10/14 02:20:28;;;;;;;;;;;;;;;;;;5070269;28;20458;-75
2023/10/14 02:22:57;;;;;;;;;;;;;;;;;;5059145;28;20003;-74
2023/10/14 02:25:27;;;;;;;;;;;;;;;;;;5068655;28;20006;-75
2023/10/14 02:27:53;;;;;;;;;;;;;;;;;;5073152;28;20274;-75
2023/10/14 02:30:19;;;;;;;;;;;;;;;;;;5069449;28;20285;-74
2023/10/14 02:32:45;;;;;;;;;;;;;;;;;;5072429;28;19908;-74
2023/10/14 02:35:15;;;;;;;;;;;;;;;;;;5070402;28;20389;-74
2023/10/14 02:37:41;;;;;;;;;;;;;;;;;;5069265;28;19942;-74
2023/10/14 02:40:12;;;;;;;;;;;;;;;;;;5069486;28;20277;-74
2023/10/14 02:42:40;;;;;;;;;;;;;;;;;;5071173;28;19969;-74
2023/10/14 02:45:12;;;;;;;;;;;;;;;;;;5061061;28;20369;-74
2023/10/14 02:47:38;;;;;;;;;;;;;;;;;;5076734;28;19912;-74
2023/10/14 02:50:11;;;;;;;;;;;;;;;;;;5070067;28;19912;-74
2023/10/14 02:52:40;;;;;;;;;;;;;;;;;;5072022;28;20328;-75
2023/10/14 02:55:22;;;;;;;;;;;;;;;;;;5071299;28;19911;-74
2023/10/14 02:57:48;;;;;;;;;;;;;;;;;;5068861;28;19924;-75
2023/10/14 03:00:29;;;;;;;;;;;;;;;;;;5059986;28;19997;-74
2023/10/14 03:02:55;;;;;;;;;;;;;;;;;;5070174;28;19908;-74
2023/10/14 03:05:33;;;;;;;;;;;;;;;;;;5061831;28;19944;-75
2023/10/14 03:08:08;;;;;;;;;;;;;;;;;;5061973;28;19909;-75
2023/10/14 03:10:39;;;;;;;;;;;;;;;;;;5066344;28;20366;-75
2023/10/14 03:13:05;;;;;;;;;;;;;;;;;;5072316;28;20011;-75
2023/10/14 03:15:38;;;;;;;;;;;;;;;;;;5069086;28;19908;-75
2023/10/14 03:18:04;;;;;;;;;;;;;;;;;;5075419;28;20005;-75
2023/10/14 03:22:57;;;;;;;;;;;;;;;;;;5064358;28;20377;-75
2023/10/14 03:25:23;;;;;;;;;;;;;;;;;;5055357;28;19908;-75
2023/10/14 03:27:49;;;;;;;;;;;;;;;;;;5070956;28;19961;-75
2023/10/14 03:30:15;;;;;;;;;;;;;;;;;;5069224;28;19995;-75
2023/10/14 03:32:42;;;;;;;;;;;;;;;;;;5066886;28;19915;-75
2023/10/14 03:35:12;;;;;;;;;;;;;;;;;;5070398;28;19912;-75
2023/10/14 03:37:40;;;;;;;;;;;;;;;;;;5055684;28;19920;-75
2023/10/14 03:42:54;;;;;;;;;;;;;;;;;;5068261;28;19915;-75
2023/10/14 03:45:22;;;;;;;;;;;;;;;;;;5070868;28;19931;-75
2023/10/14 03:47:59;;;;;;;;;;;;;;;;;;5062983;28;19916;-75
2023/10/14 03:50:25;;;;;;;;;;;;;;;;;;5076737;28;19905;-75
2023/10/14 03:52:53;;;;;;;;;;;;;;;;;;5056702;28;19913;-75
2023/10/14 03:55:26;;;;;;;;;;;;;;;;;;5064634;28;19908;-75
2023/10/14 03:57:52;;;;;;;;;;;;;;;;;;5069171;28;20435;-75
2023/10/14 04:00:18;;;;;;;;;;;;;;;;;;5067658;28;19947;-75
2023/10/14 04:02:43;;;;;;;;;;;;;;;;;;5065842;28;19951;-74
2023/10/14 04:05:12;;;;;;;;;;;;;;;;;;5063829;28;19947;-75
2023/10/14 04:07:41;;;;;;;;;;;;;;;;;;5075359;28;20263;-75
2023/10/14 04:10:09;;;;;;;;;;;;;;;;;;5074284;28;19991;-75
2023/10/14 04:17:40;;;;;;;;;;;;;;;;;;5065184;28;19920;-74
2023/10/14 04:22:38;;;;;;;;;;;;;;;;;;5073498;28;19913;-75
2023/10/14 04:25:22;;;;;;;;;;;;;;;;;;5070208;28;19908;-74
2023/10/14 04:30:20;;;;;;;;;;;;;;;;;;5071861;28;19913;-74
2023/10/14 04:35:24;;;;;;;;;;;;;;;;;;5071562;28;19923;-74
2023/10/14 04:37:50;;;;;;;;;;;;;;;;;;5070577;28;20293;-74
2023/10/14 04:40:34;;;;;;;;;;;;;;;;;;5064169;28;20140;-73
2023/10/14 04:43:02;;;;;;;;;;;;;;;;;;5079114;28;19939;-73
2023/10/14 04:45:32;;;;;;;;;;;;;;;;;;5073075;28;19943;-73
2023/10/14 04:47:58;;;;;;;;;;;;;;;;;;5069576;28;19917;-72
2023/10/14 04:50:24;;;;;;;;;;;;;;;;;;5071936;28;19908;-77
2023/10/14 04:52:50;;;;;;;;;;;;;;;;;;5073886;28;19958;-74
2023/10/14 04:55:25;;;;;;;;;;;;;;;;;;5073683;28;19909;-77
2023/10/14 04:58:06;;;;;;;;;;;;;;;;;;5072275;28;19939;-76
2023/10/14 05:00:32;;;;;;;;;;;;;;;;;;5079701;28;20006;-74
2023/10/14 05:02:59;;;;;;;;;;;;;;;;;;5073610;28;20028;-73
2023/10/14 05:05:30;;;;;;;;;;;;;;;;;;5071653;28;19976;-74
2023/10/14 05:07:58;;;;;;;;;;;;;;;;;;5071696;28;19908;-74
2023/10/14 05:10:25;;;;;;;;;;;;;;;;;;5070727;28;20002;-74
2023/10/14 05:12:52;;;;;;;;;;;;;;;;;;5072651;28;19908;-74
2023/10/14 05:15:21;;;;;;;;;;;;;;;;;;5072804;28;19914;-74
2023/10/14 05:17:49;;;;;;;;;;;;;;;;;;5071437;28;20373;-73
2023/10/14 05:23:00;;;;;;;;;;;;;;;;;;5073466;28;20053;-79
2023/10/14 05:25:30;;;;;;;;;;;;;;;;;;5073756;28;19998;-78
2023/10/14 05:27:56;;;;;;;;;;;;;;;;;;5073222;28;19924;-75
2023/10/14 05:30:22;;;;;;;;;;;;;;;;;;5065440;28;20337;-77
2023/10/14 05:32:48;;;;;;;;;;;;;;;;;;5072252;28;19989;-76
2023/10/14 05:35:14;;;;;;;;;;;;;;;;;;5073586;28;19962;-77
2023/10/14 05:37:45;;;;;;;;;;;;;;;;;;5065253;28;20035;-77
2023/10/14 05:40:14;;;;;;;;;;;;;;;;;;5055230;28;19920;-77
2023/10/14 05:42:43;;;;;;;;;;;;;;;;;;5064591;28;19995;-77
2023/10/14 05:45:11;;;;;;;;;;;;;;;;;;5064793;28;19919;-76
2023/10/14 05:47:37;;;;;;;;;;;;;;;;;;5062968;28;20124;-77
2023/10/14 05:50:06;;;;;;;;;;;;;;;;;;5073094;28;20365;-75
2023/10/14 05:52:33;;;;;;;;;;;;;;;;;;5071139;28;19912;-75
2023/10/14 05:55:05;;;;;;;;;;;;;;;;;;5075077;28;20027;-74
2023/10/14 05:57:34;;;;;;;;;;;;;;;;;;5070487;28;19962;-77
2023/10/14 06:00:02;;;;;;;;;;;;;;;;;;5073127;28;19913;-78
2023/10/14 06:02:28;;;;;;;;;;;;;;;;;;5072283;28;19919;-78
2023/10/14 06:04:54;;;;;;;;;;;;;;;;;;5056763;28;20282;-78
2023/10/14 06:07:20;;;;;;;;;;;;;;;;;;5053163;28;19912;-78
2023/10/14 06:09:46;;;;;;;;;;;;;;;;;;5067767;28;20424;-78
2023/10/14 06:12:12;;;;;;;;;;;;;;;;;;5086471;28;20327;-78
2023/10/14 06:14:38;;;;;;;;;;;;;;;;;;5065029;28;19963;-78
2023/10/14 06:17:05;;;;;;;;;;;;;;;;;;5069329;28;19955;-78
2023/10/14 06:19:31;;;;;;;;;;;;;;;;;;5066435;28;19912;-78
2023/10/14 06:21:57;;;;;;;;;;;;;;;;;;5067656;28;19915;-78
2023/10/14 06:24:23;;;;;;;;;;;;;;;;;;5066952;28;20397;-78
2023/10/14 06:26:49;;;;;;;;;;;;;;;;;;5081752;28;19974;-77
2023/10/14 06:29:17;;;;;;;;;;;;;;;;;;5067033;28;20329;-78
2023/10/14 06:31:45;;;;;;;;;;;;;;;;;;5071013;28;19909;-78
2023/10/14 06:34:11;;;;;;;;;;;;;;;;;;5069410;28;19916;-77
2023/10/14 06:36:37;;;;;;;;;;;;;;;;;;5070466;28;20358;-78
2023/10/14 06:39:25;;;;;;;;;;;;;;;;;;5062437;28;19915;-78
2023/10/14 06:41:50;;;;;;;;;;;;;;;;;;5068907;28;19924;-77
2023/10/14 06:44:17;;;;;;;;;;;;;;;;;;5066742;28;19951;-79
2023/10/14 06:46:44;;;;;;;;;;;;;;;;;;5083284;28;19913;-77
2023/10/14 06:49:13;;;;;;;;;;;;;;;;;;5066510;28;20007;-78
2023/10/14 06:51:41;;;;;;;;;;;;;;;;;;5072116;28;20453;-77
2023/10/14 06:54:09;;;;;;;;;;;;;;;;;;5070805;28;19915;-78
2023/10/14 06:56:35;;;;;;;;;;;;;;;;;;5068638;28;19917;-78
2023/10/14 06:59:01;;;;;;;;;;;;;;;;;;5071034;28;19954;-78
2023/10/14 07:01:28;;;;;;;;;;;;;;;;;;5070335;28;20011;-78
2023/10/14 07:03:54;;;;;;;;;;;;;;;;;;5071192;28;19953;-77
2023/10/14 07:06:21;;;;;;;;;;;;;;;;;;5069399;28;19912;-78
2023/10/14 07:08:49;;;;;;;;;;;;;;;;;;5069945;28;20332;-78
2023/10/14 07:11:15;;;;;;;;;;;;;;;;;;5064945;28;19908;-78
2023/10/14 07:13:42;;;;;;;;;;;;;;;;;;5072216;28;19904;-78
2023/10/14 07:16:08;;;;;;;;;;;;;;;;;;5068794;28;19959;-78
2023/10/14 07:18:36;;;;;;;;;;;;;;;;;;5070998;28;20419;-78
2023/10/14 07:21:03;;;;;;;;;;;;;;;;;;5068296;28;19912;-78
2023/10/14 07:23:29;;;;;;;;;;;;;;;;;;5069400;28;19916;-77
2023/10/14 07:25:57;;;;;;;;;;;;;;;;;;5068938;28;20145;-77
2023/10/14 07:28:23;;;;;;;;;;;;;;;;;;5068496;28;19908;-77
2023/10/14 07:30:49;;;;;;;;;;;;;;;;;;5064063;28;19931;-77
2023/10/14 07:33:16;;;;;;;;;;;;;;;;;;5054035;28;19912;-77
2023/10/14 07:35:42;;;;;;;;;;;;;;;;;;5066645;28;19992;-76
2023/10/14 07:38:08;;;;;;;;;;;;;;;;;;5070607;28;20364;-77
2023/10/14 07:40:34;;;;;;;;;;;;;;;;;;5061971;28;20442;-77
2023/10/14 07:43:05;;;;;;;;;;;;;;;;;;5068053;28;19940;-77
2023/10/14 07:45:33;;;;;;;;;;;;;;;;;;5064627;28;19954;-78
2023/10/14 07:47:59;;;;;;;;;;;;;;;;;;5052289;28;19935;-77
2023/10/14 07:50:25;;;;;;;;;;;;;;;;;;5079247;28;20374;-78
2023/10/14 07:52:51;;;;;;;;;;;;;;;;;;5069845;28;19908;-77
2023/10/14 07:55:22;;;;;;;;;;;;;;;;;;5055985;28;20659;-77
2023/10/14 07:57:48;;;;;;;;;;;;;;;;;;5070725;28;20005;-78
2023/10/14 08:00:14;;;;;;;;;;;;;;;;;;5068818;28;19965;-77
2023/10/14 08:02:40;;;;;;;;;;;;;;;;;;5082241;28;19909;-77
2023/10/14 08:05:06;;;;;;;;;;;;;;;;;;5063002;28;19966;-78
2023/10/14 08:07:34;;;;;;;;;;;;;;;;;;5069011;28;19909;-78
2023/10/14 08:10:16;;;;;;;;;;;;;;;;;;5069804;28;19908;-74
2023/10/14 08:12:42;;;;;;;;;;;;;;;;;;5068699;28;20000;-77
2023/10/14 08:15:08;;;;;;;;;;;;;;;;;;5067917;28;20393;-77
2023/10/14 08:17:34;;;;;;;;;;;;;;;;;;5073493;28;20022;-77
2023/10/14 08:20:00;;;;;;;;;;;;;;;;;;5068827;28;20475;-77
2023/10/14 08:22:26;;;;;;;;;;;;;;;;;;5065115;28;19943;-76
2023/10/14 08:24:52;;;;;;;;;;;;;;;;;;5066563;28;20002;-75
2023/10/14 08:27:18;;;;;;;;;;;;;;;;;;5069736;28;19909;-75
2023/10/14 08:29:44;;;;;;;;;;;;;;;;;;5068248;28;20040;-78
2023/10/14 08:32:10;;;;;;;;;;;;;;;;;;5064618;28;20433;-74
2023/10/14 08:34:37;;;;;;;;;;;;;;;;;;5066723;28;19922;-75
2023/10/14 08:37:04;;;;;;;;;;;;;;;;;;5068936;28;19916;-76
2023/10/14 08:39:31;;;;;;;;;;;;;;;;;;5066749;28;20331;-77
2023/10/14 08:41:57;;;;;;;;;;;;;;;;;;5070429;28;19970;-77
2023/10/14 08:44:23;;;;;;;;;;;;;;;;;;5069050;28;19955;-77
2023/10/14 08:46:49;;;;;;;;;;;;;;;;;;5063013;28;19952;-74
2023/10/14 08:49:16;;;;;;;;;;;;;;;;;;5067068;28;20301;-72
2023/10/14 08:51:44;;;;;;;;;;;;;;;;;;5067047;28;19922;-75
2023/10/14 08:54:11;;;;;;;;;;;;;;;;;;5072620;28;19916;-73
2023/10/14 08:56:36;;;;;;;;;;;;;;;;;;5068114;28;19920;-80
2023/10/14 08:59:03;;;;;;;;;;;;;;;;;;5065354;28;20311;-77
2023/10/14 09:01:31;;;;;;;;;;;;;;;;;;5075679;28;19908;-76
2023/10/14 09:03:59;;;;;;;;;;;;;;;;;;5082187;28;20409;-76
2023/10/14 09:06:25;;;;;;;;;;;;;;;;;;5074807;28;19908;-77
2023/10/14 09:08:52;;;;;;;;;;;;;;;;;;5072008;28;20286;-76
2023/10/14 09:11:18;;;;;;;;;;;;;;;;;;5083419;28;20381;-77
2023/10/14 09:13:45;;;;;;;;;;;;;;;;;;5080258;28;19921;-78
2023/10/14 09:16:14;;;;;;;;;;;;;;;;;;5073308;28;19952;-77
2023/10/14 09:18:42;;;;;;;;;;;;;;;;;;5073379;28;19908;-78
2023/10/14 09:21:08;;;;;;;;;;;;;;;;;;5074002;28;19916;-77
2023/10/14 09:23:34;;;;;;;;;;;;;;;;;;5074481;28;19912;-81
2023/10/14 09:26:00;;;;;;;;;;;;;;;;;;5070483;28;19977;-80
2023/10/14 09:28:26;;;;;;;;;;;;;;;;;;5071388;28;20394;-77
2023/10/14 09:30:52;;;;;;;;;;;;;;;;;;5069545;28;20032;-77
2023/10/14 09:33:18;;;;;;;;;;;;;;;;;;5071828;28;19988;-77
2023/10/14 09:35:44;;;;;;;;;;;;;;;;;;5070350;28;19916;-77
2023/10/14 09:38:10;;;;;;;;;;;;;;;;;;5065381;28;19951;-77
2023/10/14 09:40:36;;;;;;;;;;;;;;;;;;5071764;28;19970;-77
2023/10/14 09:43:02;;;;;;;;;;;;;;;;;;5073300;28;22926;-78
2023/10/14 09:45:28;;;;;;;;;;;;;;;;;;5070637;28;19958;-78
2023/10/14 09:47:57;;;;;;;;;;;;;;;;;;5065575;28;19944;-77
2023/10/14 09:50:23;;;;;;;;;;;;;;;;;;5069243;28;19916;-77
2023/10/14 09:52:52;;;;;;;;;;;;;;;;;;5065827;28;19917;-78
2023/10/14 09:55:18;;;;;;;;;;;;;;;;;;5067380;28;19916;-78
2023/10/14 09:57:47;;;;;;;;;;;;;;;;;;5066386;28;19916;-78
2023/10/14 10:00:16;;;;;;;;;;;;;;;;;;5072116;28;19972;-79
2023/10/14 10:02:45;;;;;;;;;;;;;;;;;;5069520;28;19940;-78
2023/10/14 10:05:12;;;;;;;;;;;;;;;;;;5068750;28;20396;-79
2023/10/14 10:07:41;;;;;;;;;;;;;;;;;;5073229;28;19904;-79
2023/10/14 10:10:10;;;;;;;;;;;;;;;;;;5068973;28;20375;-79
2023/10/14 10:12:36;;;;;;;;;;;;;;;;;;5069639;28;20270;-79
2023/10/14 10:15:03;;;;;;;;;;;;;;;;;;5070396;28;19912;-77
2023/10/14 10:17:30;;;;;;;;;;;;;;;;;;5070773;28;19921;-77
2023/10/14 10:19:56;;;;;;;;;;;;;;;;;;5071779;28;20071;-78
2023/10/14 10:22:22;;;;;;;;;;;;;;;;;;5069703;28;20004;-79
2023/10/14 10:24:48;;;;;;;;;;;;;;;;;;5073282;28;20357;-80
2023/10/14 10:27:14;;;;;;;;;;;;;;;;;;5065354;28;20306;-81
2023/10/14 10:29:42;;;;;;;;;;;;;;;;;;5068465;28;19913;-81
2023/10/14 10:32:08;;;;;;;;;;;;;;;;;;5071698;28;19919;-81
2023/10/14 10:34:34;;;;;;;;;;;;;;;;;;5071537;28;19908;-79
2023/10/14 10:37:00;;;;;;;;;;;;;;;;;;5071063;28;19960;-79
2023/10/14 10:39:25;;;;;;;;;;;;;;;;;;5067020;28;19955;-79
2023/10/14 10:41:53;;;;;;;;;;;;;;;;;;5071930;28;20386;-79
2023/10/14 10:44:19;;;;;;;;;;;;;;;;;;5069253;28;20388;-79
2023/10/14 10:46:45;;;;;;;;;;;;;;;;;;5071259;28;19912;-79
2023/10/14 10:49:11;;;;;;;;;;;;;;;;;;5070681;28;19908;-79
2023/10/14 10:51:37;;;;;;;;;;;;;;;;;;5066533;28;19915;-79
2023/10/14 10:54:03;;;;;;;;;;;;;;;;;;5068487;28;20354;-79
2023/10/14 10:56:29;;;;;;;;;;;;;;;;;;5072212;28;19957;-81
2023/10/14 10:58:55;;;;;;;;;;;;;;;;;;5071191;28;20379;-79
2023/10/14 11:01:21;;;;;;;;;;;;;;;;;;5068206;28;20069;-79
2023/10/14 11:03:49;;;;;;;;;;;;;;;;;;5067857;28;19951;-78
2023/10/14 11:06:17;;;;;;;;;;;;;;;;;;5071076;28;19946;-81
2023/10/14 11:08:45;;;;;;;;;;;;;;;;;;5065977;28;19923;-83
2023/10/14 11:11:12;;;;;;;;;;;;;;;;;;5069118;28;20567;-81
2023/10/14 11:13:39;;;;;;;;;;;;;;;;;;5069541;28;20020;-79
2023/10/14 11:16:08;;;;;;;;;;;;;;;;;;5070873;28;19991;-79
2023/10/14 11:18:34;;;;;;;;;;;;;;;;;;5070972;28;19935;-81
2023/10/14 11:21:00;;;;;;;;;;;;;;;;;;5070490;28;19939;-79
2023/10/14 11:23:28;;;;;;;;;;;;;;;;;;5070198;28;19959;-79
2023/10/14 11:25:55;;;;;;;;;;;;;;;;;;5070313;28;20384;-79
2023/10/14 11:28:21;;;;;;;;;;;;;;;;;;5068845;28;19917;-80
2023/10/14 11:30:47;;;;;;;;;;;;;;;;;;5069359;28;19947;-79
2023/10/14 11:33:13;;;;;;;;;;;;;;;;;;5070021;28;19912;-77
2023/10/14 11:35:39;;;;;;;;;;;;;;;;;;5069371;28;20018;-79
2023/10/14 11:38:06;;;;;;;;;;;;;;;;;;5071343;28;19960;-82
2023/10/14 11:40:32;;;;;;;;;;;;;;;;;;5080758;28;19917;-81
2023/10/14 11:42:58;;;;;;;;;;;;;;;;;;5068520;28;19919;-81
2023/10/14 11:45:24;;;;;;;;;;;;;;;;;;5069122;28;19948;-82
2023/10/14 11:47:50;;;;;;;;;;;;;;;;;;5064751;28;19912;-81
2023/10/14 11:50:17;;;;;;;;;;;;;;;;;;5064621;28;20018;-78
2023/10/14 11:52:43;;;;;;;;;;;;;;;;;;5068613;28;19916;-78
2023/10/14 11:55:14;;;;;;;;;;;;;;;;;;5077773;28;20004;-79
2023/10/14 11:57:41;;;;;;;;;;;;;;;;;;5067281;28;19917;-79
2023/10/14 12:00:10;;;;;;;;;;;;;;;;;;5068957;28;19999;-79
2023/10/14 12:02:36;;;;;;;;;;;;;;;;;;5069104;28;19912;-80
2023/10/14 12:05:03;;;;;;;;;;;;;;;;;;5066578;28;20380;-79
2023/10/14 12:07:32;;;;;;;;;;;;;;;;;;5069238;28;19932;-80
2023/10/14 12:09:59;;;;;;;;;;;;;;;;;;5069500;28;19912;-78
2023/10/14 12:12:25;;;;;;;;;;;;;;;;;;5066145;28;19908;-78
2023/10/14 12:14:51;;;;;;;;;;;;;;;;;;5069693;28;20340;-78
2023/10/14 12:17:17;;;;;;;;;;;;;;;;;;5067650;28;20012;-80
2023/10/14 12:19:43;;;;;;;;;;;;;;;;;;5065275;28;19947;-78
2023/10/14 12:22:09;;;;;;;;;;;;;;;;;;5069069;28;19955;-78
2023/10/14 12:24:35;;;;;;;;;;;;;;;;;;5067090;28;19955;-80
2023/10/14 12:27:02;;;;;;;;;;;;;;;;;;5065072;28;19948;-80
2023/10/14 12:29:32;;;;;;;;;;;;;;;;;;5072553;28;19913;-80
2023/10/14 12:31:59;;;;;;;;;;;;;;;;;;5072646;28;19919;-80
2023/10/14 12:34:25;;;;;;;;;;;;;;;;;;5071721;28;19955;-79
2023/10/14 12:36:52;;;;;;;;;;;;;;;;;;5073007;28;20337;-80
2023/10/14 12:39:30;;;;;;;;;;;;;;;;;;5068737;28;19918;-80
2023/10/14 12:42:02;;;;;;;;;;;;;;;;;;5064033;28;20277;-79
2023/10/14 12:44:28;;;;;;;;;;;;;;;;;;5080047;28;20278;-82
2023/10/14 12:46:54;;;;;;;;;;;;;;;;;;5070053;28;19934;-80
2023/10/14 12:49:22;;;;;;;;;;;;;;;;;;5071460;28;20372;-79
2023/10/14 12:51:48;;;;;;;;;;;;;;;;;;5070301;28;19916;-78
2023/10/14 12:54:17;;;;;;;;;;;;;;;;;;5070393;28;19948;-79
2023/10/14 12:56:43;;;;;;;;;;;;;;;;;;5063924;28;19935;-79
2023/10/14 12:59:12;;;;;;;;;;;;;;;;;;5073049;28;20357;-77
2023/10/14 13:01:46;;;;;;;;;;;;;;;;;;5066516;28;19912;-78
2023/10/14 13:04:16;;;;;;;;;;;;;;;;;;5061589;28;19950;-80
2023/10/14 13:06:44;;;;;;;;;;;;;;;;;;5089839;28;19919;-77
2023/10/14 13:09:11;;;;;;;;;;;;;;;;;;5065127;28;19908;-81
2023/10/14 13:11:43;;;;;;;;;;;;;;;;;;5074287;28;19904;-79
2023/10/14 13:14:09;;;;;;;;;;;;;;;;;;5071573;28;20409;-78
2023/10/14 13:16:35;;;;;;;;;;;;;;;;;;5073299;28;20004;-78
2023/10/14 13:19:01;;;;;;;;;;;;;;;;;;5074564;28;19905;-78
2023/10/14 13:21:30;;;;;;;;;;;;;;;;;;5074083;28;19911;-78
2023/10/14 13:23:56;;;;;;;;;;;;;;;;;;5072740;28;19915;-81
2023/10/14 13:26:22;;;;;;;;;;;;;;;;;;5072187;28;20896;-77
2023/10/14 13:28:51;;;;;;;;;;;;;;;;;;5073377;28;19912;-76
2023/10/14 13:31:17;;;;;;;;;;;;;;;;;;5073580;28;19908;-77
2023/10/14 13:33:46;;;;;;;;;;;;;;;;;;5072932;28;19943;-77
2023/10/14 13:36:12;;;;;;;;;;;;;;;;;;5072528;28;20006;-77
2023/10/14 13:38:39;;;;;;;;;;;;;;;;;;5072033;28;20058;-78
2023/10/14 13:41:05;;;;;;;;;;;;;;;;;;5074210;28;19970;-77
2023/10/14 13:43:31;;;;;;;;;;;;;;;;;;5071165;28;19912;-77
2023/10/14 13:45:57;;;;;;;;;;;;;;;;;;5073055;28;19958;-78
2023/10/14 13:48:24;;;;;;;;;;;;;;;;;;5073598;28;20361;-78
2023/10/14 13:50:54;;;;;;;;;;;;;;;;;;5073949;28;19957;-78
2023/10/14 13:53:21;;;;;;;;;;;;;;;;;;5069768;28;19908;-77
2023/10/14 13:55:54;;;;;;;;;;;;;;;;;;5065569;28;19908;-77
2023/10/14 13:58:21;;;;;;;;;;;;;;;;;;5079273;28;19962;-77
2023/10/14 14:00:50;;;;;;;;;;;;;;;;;;5064294;28;19908;-77
2023/10/14 14:03:16;;;;;;;;;;;;;;;;;;5073425;28;19961;-77
2023/10/14 14:05:42;;;;;;;;;;;;;;;;;;5071378;28;19909;-77
2023/10/14 14:08:08;;;;;;;;;;;;;;;;;;5062938;28;19935;-77
2023/10/14 14:10:34;;;;;;;;;;;;;;;;;;5053916;28;20346;-78
2023/10/14 14:13:02;;;;;;;;;;;;;;;;;;5070933;28;19908;-80
2023/10/14 14:15:28;;;;;;;;;;;;;;;;;;5062965;28;20316;-78
2023/10/14 14:17:54;;;;;;;;;;;;;;;;;;5070340;28;20370;-78
2023/10/14 14:20:20;;;;;;;;;;;;;;;;;;5055116;28;20254;-76
2023/10/14 14:22:46;;;;;;;;;;;;;;;;;;5077168;28;19939;-76
2023/10/14 14:25:12;;;;;;;;;;;;;;;;;;5075470;28;19915;-75
2023/10/14 14:27:38;;;;;;;;;;;;;;;;;;5088308;28;19912;-75
2023/10/14 14:30:07;;;;;;;;;;;;;;;;;;5069464;28;19952;-76
2023/10/14 14:32:36;;;;;;;;;;;;;;;;;;5062115;28;19955;-76
2023/10/14 14:35:02;;;;;;;;;;;;;;;;;;5065730;28;19921;-75
2023/10/14 14:37:32;;;;;;;;;;;;;;;;;;5073044;28;19994;-75
2023/10/14 14:39:58;;;;;;;;;;;;;;;;;;5072634;28;19915;-76
2023/10/14 14:42:26;;;;;;;;;;;;;;;;;;5071199;28;19949;-77
2023/10/14 14:44:53;;;;;;;;;;;;;;;;;;5072174;28;19909;-76
2023/10/14 14:47:19;;;;;;;;;;;;;;;;;;5071366;28;19908;-77
2023/10/14 14:49:45;;;;;;;;;;;;;;;;;;5071730;28;19998;-76
2023/10/14 14:52:11;;;;;;;;;;;;;;;;;;5068398;28;19955;-76
2023/10/14 14:54:40;;;;;;;;;;;;;;;;;;5071266;28;19908;-77
2023/10/14 14:57:06;;;;;;;;;;;;;;;;;;5072520;28;19959;-77
2023/10/14 14:59:34;;;;;;;;;;;;;;;;;;5071922;28;19909;-76
2023/10/14 15:02:01;;;;;;;;;;;;;;;;;;5072085;28;19916;-77
2023/10/14 15:04:27;;;;;;;;;;;;;;;;;;5071624;28;19955;-76
2023/10/14 15:06:55;;;;;;;;;;;;;;;;;;5071147;28;19916;-76
2023/10/14 15:09:21;;;;;;;;;;;;;;;;;;5071063;28;19958;-76
2023/10/14 15:11:47;;;;;;;;;;;;;;;;;;5072400;28;19954;-77
2023/10/14 15:14:16;;;;;;;;;;;;;;;;;;5063004;28;19947;-77
2023/10/14 15:16:42;;;;;;;;;;;;;;;;;;5065065;28;20362;-76
2023/10/14 15:19:08;;;;;;;;;;;;;;;;;;5069408;28;19953;-77
2023/10/14 15:21:34;;;;;;;;;;;;;;;;;;5071870;28;19904;-76
2023/10/14 15:24:00;;;;;;;;;;;;;;;;;;5072026;28;19912;-75
2023/10/14 15:26:26;;;;;;;;;;;;;;;;;;5070798;28;19962;-76
2023/10/14 15:28:53;;;;;;;;;;;;;;;;;;5071483;28;19916;-76
2023/10/14 15:31:19;;;;;;;;;;;;;;;;;;5070735;28;20259;-79
2023/10/14 15:33:46;;;;;;;;;;;;;;;;;;5071978;28;20007;-76
2023/10/14 15:36:15;;;;;;;;;;;;;;;;;;5068719;28;19952;-76
2023/10/14 15:38:41;;;;;;;;;;;;;;;;;;5070653;28;19924;-77
2023/10/14 15:41:07;;;;;;;;;;;;;;;;;;5071362;28;19917;-78
2023/10/14 15:43:33;;;;;;;;;;;;;;;;;;5052718;28;19916;-76
2023/10/14 15:46:01;;;;;;;;;;;;;;;;;;5061352;28;19904;-77
2023/10/14 15:48:31;;;;;;;;;;;;;;;;;;5052705;28;20010;-76
2023/10/14 15:50:57;;;;;;;;;;;;;;;;;;5054485;28;19911;-76
2023/10/14 15:53:23;;;;;;;;;;;;;;;;;;5085433;28;19913;-78
2023/10/14 15:55:50;;;;;;;;;;;;;;;;;;5069859;28;20004;-77
2023/10/14 15:58:16;;;;;;;;;;;;;;;;;;5062747;28;19921;-78
2023/10/14 16:00:48;;;;;;;;;;;;;;;;;;5070545;28;20006;-76
2023/10/14 16:03:19;;;;;;;;;;;;;;;;;;5070581;28;19994;-76
2023/10/14 16:05:45;;;;;;;;;;;;;;;;;;5069911;28;19908;-78
2023/10/14 16:08:13;;;;;;;;;;;;;;;;;;5071232;28;20293;-80
2023/10/14 16:10:40;;;;;;;;;;;;;;;;;;5055663;28;20391;-77
2023/10/14 16:13:06;;;;;;;;;;;;;;;;;;5071792;28;20247;-77
2023/10/14 16:15:32;;;;;;;;;;;;;;;;;;5069884;28;19913;-76
2023/10/14 16:18:00;;;;;;;;;;;;;;;;;;5071438;28;20457;-76
2023/10/14 16:20:26;;;;;;;;;;;;;;;;;;5068332;28;19913;-76
2023/10/14 16:22:52;;;;;;;;;;;;;;;;;;5071580;28;20011;-76
2023/10/14 16:25:21;;;;;;;;;;;;;;;;;;5071310;28;20361;-78
2023/10/14 16:27:47;;;;;;;;;;;;;;;;;;5071214;28;19912;-76
2023/10/14 16:30:16;;;;;;;;;;;;;;;;;;5070366;28;19908;-76
2023/10/14 16:32:43;;;;;;;;;;;;;;;;;;5068676;28;19908;-77
2023/10/14 16:35:09;;;;;;;;;;;;;;;;;;5071235;28;19912;-77
2023/10/14 16:37:34;;;;;;;;;;;;;;;;;;5069664;28;19966;-75
2023/10/14 16:40:00;;;;;;;;;;;;;;;;;;5071218;28;19912;-76
2023/10/14 16:42:29;;;;;;;;;;;;;;;;;;5069348;28;19951;-75
2023/10/14 16:44:55;;;;;;;;;;;;;;;;;;5071495;28;19915;-76
2023/10/14 16:47:21;;;;;;;;;;;;;;;;;;5061969;28;19920;-76
2023/10/14 16:49:47;;;;;;;;;;;;;;;;;;5070715;28;20270;-76
2023/10/14 16:52:17;;;;;;;;;;;;;;;;;;5069146;28;19973;-76
2023/10/14 16:54:43;;;;;;;;;;;;;;;;;;5067461;28;19909;-76
2023/10/14 16:57:09;;;;;;;;;;;;;;;;;;5061163;28;19954;-76
2023/10/14 16:59:35;;;;;;;;;;;;;;;;;;5068630;28;20369;-76
2023/10/14 17:02:02;;;;;;;;;;;;;;;;;;5070255;28;20320;-76
2023/10/14 17:04:28;;;;;;;;;;;;;;;;;;5055895;28;19952;-76
2023/10/14 17:06:54;;;;;;;;;;;;;;;;;;5062697;28;20338;-77
2023/10/14 17:09:23;;;;;;;;;;;;;;;;;;5069128;28;20269;-76
2023/10/14 17:11:50;;;;;;;;;;;;;;;;;;5069882;28;20090;-75
2023/10/14 17:14:16;;;;;;;;;;;;;;;;;;5070428;28;20271;-77
2023/10/14 17:16:42;;;;;;;;;;;;;;;;;;5067277;28;20409;-73